createdAt,value
2023-03-21T00:02:33.430Z,33.79
2023-03-21T00:06:33.319Z,34.08
2023-03-21T00:10:40.463Z,33.01
2023-03-21T00:14:34.220Z,31.78
2023-03-21T00:18:33.193Z,30.63
2023-03-21T00:22:33.407Z,31.45
2023-03-21T00:26:33.358Z,27.16
2023-03-21T00:30:33.315Z,25.17
2023-03-21T00:34:42.991Z,26.73
2023-03-21T00:38:34.260Z,29.94
2023-03-21T00:42:33.298Z,30.55
2023-03-21T00:46:45.220Z,32.78
2023-03-21T00:50:34.247Z,29.79
2023-03-21T00:54:33.239Z,27.88
2023-03-21T00:58:33.474Z,34.44
2023-03-21T01:02:33.652Z,29.38
2023-03-21T01:06:33.898Z,29.48
2023-03-21T01:10:33.855Z,30.06
2023-03-21T01:14:33.817Z,29.23
2023-03-21T01:18:33.775Z,34.28
2023-03-21T01:22:33.733Z,30.76
2023-03-21T01:26:33.725Z,33.16
2023-03-21T01:30:37.017Z,36.27
2023-03-21T01:34:34.618Z,33.62
2023-03-21T01:38:33.581Z,35.08
2023-03-21T01:42:33.570Z,37.79
2023-03-21T01:46:45.377Z,33.74
2023-03-21T01:50:34.500Z,35.10
2023-03-21T01:54:33.912Z,36.61
2023-03-21T01:58:33.429Z,34.50
2023-03-21T02:02:33.393Z,36.44
2023-03-21T02:06:33.378Z,33.17
2023-03-21T02:10:33.350Z,36.13
2023-03-21T02:14:33.292Z,32.47
2023-03-21T02:18:33.273Z,36.87
2023-03-21T02:22:33.230Z,34.72
2023-03-21T02:26:41.111Z,34.12
2023-03-21T02:30:45.518Z,35.83
2023-03-21T02:34:34.133Z,33.37
2023-03-21T02:38:33.062Z,36.21
2023-03-21T02:42:33.061Z,36.49
2023-03-21T02:46:41.824Z,33.64
2023-03-21T02:50:34.042Z,35.35
2023-03-21T02:54:47.266Z,35.17
2023-03-21T02:58:33.885Z,35.21
2023-03-21T03:02:32.857Z,32.76
2023-03-21T03:06:32.810Z,33.20
2023-03-21T03:10:32.792Z,32.88
2023-03-21T03:14:46.846Z,31.15
2023-03-21T03:18:33.719Z,29.41
2023-03-21T03:22:32.681Z,33.15
2023-03-21T03:26:32.640Z,32.92
2023-03-21T03:30:42.247Z,32.02
2023-03-21T03:34:33.593Z,34.23
2023-03-21T03:38:32.596Z,30.32
2023-03-21T03:42:32.562Z,28.35
2023-03-21T03:46:32.481Z,32.79
2023-03-21T03:50:32.451Z,30.07
2023-03-21T03:54:32.412Z,28.32
2023-03-21T03:58:44.651Z,25.53
2023-03-21T04:02:33.398Z,27.62
2023-03-21T04:06:32.299Z,30.42
2023-03-21T04:10:32.303Z,29.27
2023-03-21T04:14:44.170Z,30.53
2023-03-21T04:18:33.214Z,28.00
2023-03-21T04:22:32.152Z,28.45
2023-03-21T04:26:32.137Z,28.97
2023-03-21T04:30:32.077Z,32.29
2023-03-21T04:34:32.041Z,25.61
2023-03-21T04:38:32.015Z,27.88
2023-03-21T04:42:31.994Z,29.17
2023-03-21T04:46:31.942Z,32.20
2023-03-21T04:50:31.915Z,28.99
2023-03-21T04:54:31.860Z,31.69
2023-03-21T04:58:31.825Z,29.72
2023-03-21T05:02:31.925Z,30.03
2023-03-21T05:06:31.918Z,29.09
2023-03-21T05:10:31.868Z,25.22
2023-03-21T05:14:31.823Z,27.89
2023-03-21T05:18:31.783Z,28.76
2023-03-21T05:22:31.749Z,27.22
2023-03-21T05:26:31.695Z,28.43
2023-03-21T05:30:31.654Z,32.22
2023-03-21T05:34:31.637Z,32.16
2023-03-21T05:38:31.592Z,25.61
2023-03-21T05:42:31.712Z,29.16
2023-03-21T05:46:31.929Z,27.53
2023-03-21T05:50:32.069Z,27.94
2023-03-21T05:54:32.309Z,29.43
2023-03-21T05:58:32.441Z,27.60
2023-03-21T06:02:32.646Z,31.20
2023-03-21T06:06:32.822Z,28.88
2023-03-21T06:10:32.834Z,30.09
2023-03-21T06:14:32.793Z,32.73
2023-03-21T06:18:32.753Z,31.92
2023-03-21T06:22:32.723Z,26.78
2023-03-21T06:26:32.691Z,32.60
2023-03-21T06:30:32.618Z,31.66
2023-03-21T06:34:32.617Z,27.60
2023-03-21T06:38:32.534Z,29.92
2023-03-21T06:42:32.556Z,30.80
2023-03-21T06:46:32.674Z,30.90
2023-03-21T06:50:32.559Z,34.99
2023-03-21T06:54:32.548Z,43.17
2023-03-21T06:58:32.528Z,44.72
2023-03-21T07:02:32.498Z,42.04
2023-03-21T07:06:32.427Z,44.43
2023-03-21T07:10:32.386Z,39.02
2023-03-21T07:14:32.386Z,37.24
2023-03-21T07:18:32.318Z,40.77
2023-03-21T07:22:32.268Z,35.75
2023-03-21T07:26:32.388Z,31.36
2023-03-21T07:30:32.348Z,32.59
2023-03-21T07:34:32.309Z,32.40
2023-03-21T07:38:32.282Z,30.61
2023-03-21T07:46:32.215Z,30.59
2023-03-21T07:50:32.156Z,32.39
2023-03-21T07:54:32.163Z,29.46
2023-03-21T07:58:32.109Z,36.68
2023-03-21T08:02:32.089Z,34.33
2023-03-21T08:06:32.057Z,40.03
2023-03-21T08:10:32.167Z,37.58
2023-03-21T08:14:32.166Z,35.59
2023-03-21T08:18:32.062Z,38.63
2023-03-21T08:22:32.048Z,38.37
2023-03-21T08:26:32.018Z,37.65
2023-03-21T08:30:32.066Z,32.37
2023-03-21T08:34:31.939Z,30.65
2023-03-21T08:38:31.944Z,33.63
2023-03-21T08:42:31.852Z,34.12
2023-03-21T08:46:31.979Z,42.08
2023-03-21T08:50:31.957Z,70.38
2023-03-21T08:54:32.160Z,103.86
2023-03-21T08:58:32.283Z,113.23
2023-03-21T09:02:32.244Z,115.42
2023-03-21T09:06:32.259Z,112.18
2023-03-21T09:10:32.351Z,116.24
2023-03-21T09:14:32.284Z,115.63
2023-03-21T09:18:32.255Z,123.29
2023-03-21T09:22:32.240Z,127.22
2023-03-21T09:26:32.214Z,128.62
2023-03-21T09:30:32.162Z,131.59
2023-03-21T09:34:32.119Z,133.00
2023-03-21T09:38:32.103Z,136.55
2023-03-21T09:42:32.102Z,141.53
2023-03-21T09:46:32.063Z,159.50
2023-03-21T09:50:32.003Z,172.22
2023-03-21T09:54:31.966Z,168.84
2023-03-21T09:58:32.068Z,163.41
2023-03-21T10:02:31.877Z,170.94
2023-03-21T10:06:31.940Z,164.06
2023-03-21T10:10:31.805Z,158.81
2023-03-21T10:14:31.822Z,151.95
2023-03-21T10:18:32.018Z,137.43
2023-03-21T10:22:32.248Z,132.84
2023-03-21T10:26:32.421Z,120.53
2023-03-21T10:30:32.617Z,128.17
2023-03-21T10:34:32.804Z,109.26
2023-03-21T10:38:32.919Z,105.22
2023-03-21T10:42:33.134Z,113.16
2023-03-21T10:46:36.012Z,106.39
2023-03-21T10:50:33.334Z,108.13
2023-03-21T10:54:33.224Z,116.51
2023-03-21T10:58:33.227Z,100.60
2023-03-21T11:02:33.260Z,91.00
2023-03-21T11:06:33.131Z,98.14
2023-03-21T11:10:33.106Z,99.71
2023-03-21T11:14:33.069Z,98.14
2023-03-21T11:18:33.065Z,91.01
2023-03-21T11:22:32.989Z,91.06
2023-03-21T11:26:33.009Z,79.17
2023-03-21T11:30:32.950Z,78.34
2023-03-21T11:34:32.999Z,79.58
2023-03-21T11:38:33.119Z,69.44
2023-03-21T11:42:33.572Z,78.75
2023-03-21T11:46:33.581Z,73.05
2023-03-21T11:50:33.593Z,83.69
2023-03-21T11:54:33.666Z,97.96
2023-03-21T11:58:33.757Z,104.72
2023-03-21T12:02:33.739Z,111.63
2023-03-21T12:06:33.713Z,89.07
2023-03-21T12:10:33.604Z,78.01
2023-03-21T12:14:33.584Z,61.96
2023-03-21T12:18:33.581Z,54.75
2023-03-21T12:22:33.565Z,57.91
2023-03-21T12:26:33.620Z,66.14
2023-03-21T12:30:33.608Z,59.73
2023-03-21T12:34:33.690Z,59.98
2023-03-21T12:38:33.905Z,63.85
2023-03-21T12:42:33.948Z,59.81
2023-03-21T12:46:34.165Z,52.51
2023-03-21T12:50:34.232Z,53.37
2023-03-21T12:54:34.561Z,49.00
2023-03-21T12:58:34.482Z,46.22
2023-03-21T13:02:34.416Z,41.17
2023-03-21T13:06:34.347Z,38.98
2023-03-21T13:10:34.407Z,35.53
2023-03-21T13:14:34.330Z,32.36
2023-03-21T13:18:34.230Z,30.33
2023-03-21T13:22:34.208Z,26.63
2023-03-21T13:26:34.254Z,26.92
2023-03-21T13:30:34.244Z,27.36
2023-03-21T13:34:34.111Z,27.35
2023-03-21T13:38:34.077Z,30.09
2023-03-21T13:42:34.129Z,29.32
2023-03-21T13:46:46.720Z,27.95
2023-03-21T13:50:34.960Z,25.63
2023-03-21T13:54:33.927Z,28.24
2023-03-21T13:58:33.976Z,27.53
2023-03-21T14:06:53.057Z,25.00
2023-03-21T14:10:52.997Z,28.27
2023-03-21T14:14:53.044Z,25.87
2023-03-21T14:18:55.112Z,25.72
2023-03-21T14:22:53.269Z,25.93
2023-03-21T14:26:52.829Z,29.37
2023-03-21T14:30:52.910Z,27.68
2023-03-21T14:34:52.783Z,26.38
2023-03-21T14:38:52.774Z,25.00
2023-03-21T14:42:52.721Z,26.73
2023-03-21T14:46:52.751Z,25.00
2023-03-21T14:50:52.656Z,30.33
2023-03-21T14:54:52.688Z,31.84
2023-03-21T14:58:52.712Z,30.54
2023-03-21T15:02:52.915Z,30.24
2023-03-21T15:06:52.585Z,28.88
2023-03-21T15:11:06.033Z,33.04
2023-03-21T15:14:53.576Z,33.95
2023-03-21T15:18:52.579Z,34.47
2023-03-21T15:22:52.444Z,34.25
2023-03-21T15:26:52.428Z,32.79
2023-03-21T15:30:52.385Z,31.72
2023-03-21T15:34:52.434Z,32.12
2023-03-21T15:38:52.795Z,29.51
2023-03-21T15:42:52.271Z,29.74
2023-03-21T15:46:52.262Z,27.25
2023-03-21T15:50:52.260Z,30.37
2023-03-21T15:54:52.219Z,30.56
2023-03-21T15:58:52.120Z,29.82
2023-03-21T16:02:52.104Z,29.30
2023-03-21T16:06:52.109Z,25.37
2023-03-21T16:10:51.997Z,30.93
2023-03-21T16:14:51.963Z,35.51
2023-03-21T16:18:51.951Z,39.46
2023-03-21T16:22:51.893Z,48.32
2023-03-21T16:26:51.845Z,51.85
2023-03-21T16:30:51.794Z,56.93
2023-03-21T16:34:51.760Z,71.39
2023-03-21T16:38:51.898Z,74.83
2023-03-21T16:42:52.091Z,76.49
2023-03-21T16:46:52.220Z,81.34
2023-03-21T16:50:52.406Z,86.91
2023-03-21T16:54:52.581Z,78.34
2023-03-21T16:58:52.725Z,75.89
2023-03-21T17:02:53.003Z,95.88
2023-03-21T17:06:53.078Z,123.62
2023-03-21T17:10:53.244Z,140.42
2023-03-21T17:14:53.359Z,175.93
2023-03-21T17:18:53.464Z,179.91
2023-03-21T17:22:53.575Z,153.25
2023-03-21T17:26:53.807Z,226.43
2023-03-21T17:30:53.767Z,188.20
2023-03-21T17:34:53.765Z,175.56
2023-03-21T17:38:53.800Z,189.44
2023-03-21T17:42:53.887Z,192.22
2023-03-21T17:46:53.898Z,234.42
2023-03-21T17:50:53.942Z,209.70
2023-03-21T17:54:53.897Z,195.94
2023-03-21T17:58:53.895Z,189.44
2023-03-21T18:02:53.927Z,174.38
2023-03-21T18:06:53.871Z,173.10
2023-03-21T18:10:53.949Z,163.38
2023-03-21T18:14:53.937Z,152.39
2023-03-21T18:18:54.372Z,151.71
2023-03-21T18:22:54.061Z,144.13
2023-03-21T18:26:54.139Z,143.78
2023-03-21T18:31:09.605Z,136.78
2023-03-21T18:34:55.181Z,134.96
2023-03-21T18:38:54.188Z,129.31
2023-03-21T18:43:44.152Z,126.81
2023-03-21T18:46:55.088Z,123.48
2023-03-21T18:50:54.066Z,121.76
2023-03-21T18:54:53.985Z,119.13
2023-03-21T18:58:54.058Z,117.78
2023-03-21T19:03:06.420Z,116.75
2023-03-21T19:06:55.143Z,113.91
2023-03-21T19:10:54.073Z,111.85
2023-03-21T19:14:54.065Z,112.27
2023-03-21T19:18:56.914Z,109.10
2023-03-21T19:22:54.178Z,108.40
2023-03-21T19:26:54.148Z,108.45
2023-03-21T19:30:54.064Z,116.40
2023-03-21T19:34:54.057Z,132.91
2023-03-21T19:38:54.008Z,152.45
2023-03-21T19:42:53.967Z,200.72
2023-03-21T19:46:53.944Z,187.27
2023-03-21T19:51:25.850Z,165.94
2023-03-21T19:54:54.835Z,181.73
2023-03-21T19:58:53.828Z,231.96
2023-03-21T20:02:53.822Z,214.29
2023-03-21T20:06:53.769Z,165.85
2023-03-21T20:10:53.734Z,161.54
2023-03-21T20:15:01.621Z,159.46
2023-03-21T20:18:54.657Z,158.98
2023-03-21T20:23:06.276Z,155.45
2023-03-21T20:26:54.573Z,153.72
2023-03-21T20:30:53.630Z,150.07
2023-03-21T20:35:02.675Z,147.42
2023-03-21T20:38:54.506Z,145.25
2023-03-21T20:42:55.303Z,140.98
2023-03-21T20:46:53.433Z,139.68
2023-03-21T20:50:58.822Z,139.53
2023-03-21T20:54:54.413Z,135.56
2023-03-21T20:59:04.806Z,133.66
2023-03-21T21:02:54.365Z,133.23
2023-03-21T21:06:53.263Z,127.13
2023-03-21T21:11:32.378Z,124.16
2023-03-21T21:14:54.283Z,124.29
2023-03-21T21:18:53.190Z,121.19
2023-03-21T21:22:59.706Z,120.14
2023-03-21T21:26:54.235Z,118.45
2023-03-21T21:30:53.147Z,116.37
2023-03-21T21:34:53.245Z,117.32
2023-03-21T21:38:53.428Z,112.98
2023-03-21T21:42:53.800Z,112.00
2023-03-21T21:46:53.948Z,112.91
2023-03-21T21:50:53.854Z,110.24
2023-03-21T21:54:53.814Z,109.65
2023-03-21T21:58:53.767Z,108.82
2023-03-21T22:02:53.713Z,106.69
2023-03-21T22:06:53.706Z,106.58
2023-03-21T22:10:53.669Z,104.24
2023-03-21T22:14:53.604Z,104.52
2023-03-21T22:18:53.554Z,100.97
2023-03-21T22:22:53.544Z,102.19
2023-03-21T22:26:53.575Z,102.15
2023-03-21T22:30:53.475Z,99.80
2023-03-21T22:34:53.447Z,98.60
2023-03-21T22:38:53.407Z,96.73
2023-03-21T22:42:53.461Z,96.50
2023-03-21T22:46:53.359Z,95.51
2023-03-21T22:50:53.314Z,92.65
2023-03-21T22:54:53.324Z,92.85
2023-03-21T22:58:53.242Z,91.11
2023-03-21T23:02:53.473Z,89.18
2023-03-21T23:06:53.471Z,91.15
2023-03-21T23:10:53.316Z,88.12
2023-03-21T23:14:53.272Z,86.71
2023-03-21T23:18:53.249Z,87.66
2023-03-21T23:22:53.216Z,85.49
2023-03-21T23:26:53.201Z,83.94
2023-03-21T23:30:53.200Z,85.53
2023-03-21T23:34:53.081Z,79.79
2023-03-21T23:38:53.063Z,80.60
2023-03-21T23:42:53.032Z,79.47
2023-03-21T23:46:53.025Z,78.16
2023-03-21T23:50:54.072Z,76.43
2023-03-21T23:54:52.957Z,74.54
2023-03-21T23:58:52.935Z,71.60
